createdAt,value
2022-12-25T00:00:15.302Z,3.95
2022-12-25T00:01:11.205Z,3.89
2022-12-25T00:02:11.217Z,3.88
2022-12-25T00:03:11.311Z,3.85
2022-12-25T00:04:11.356Z,3.86
2022-12-25T00:05:11.313Z,3.81
2022-12-25T00:06:11.342Z,3.78
2022-12-25T00:07:11.383Z,3.75
2022-12-25T00:08:11.407Z,3.71
2022-12-25T00:09:11.445Z,3.7
2022-12-25T00:10:11.491Z,3.6
2022-12-25T00:11:11.514Z,3.57
2022-12-25T00:12:11.581Z,3.58
2022-12-25T00:13:11.599Z,3.53
2022-12-25T00:14:11.624Z,3.51
2022-12-25T00:15:11.643Z,3.47
2022-12-25T00:16:11.750Z,3.45
2022-12-25T00:17:11.725Z,3.39
2022-12-25T00:18:11.788Z,3.38
2022-12-25T00:19:11.797Z,3.34
2022-12-25T00:20:11.837Z,3.33
2022-12-25T00:21:11.873Z,3.3
2022-12-25T00:22:11.899Z,3.26
2022-12-25T00:23:11.954Z,3.23
2022-12-25T00:24:11.986Z,3.23
2022-12-25T00:25:12.020Z,3.2
2022-12-25T00:26:12.079Z,3.15
2022-12-25T00:27:12.218Z,3.15
2022-12-25T00:28:12.126Z,3.1
2022-12-25T00:29:12.165Z,3.09
2022-12-25T00:30:12.204Z,3
2022-12-25T00:31:12.366Z,2.99
2022-12-25T00:32:12.271Z,2.98
2022-12-25T00:33:12.309Z,2.91
2022-12-25T00:34:12.358Z,2.91
2022-12-25T00:35:12.401Z,2.88
2022-12-25T00:36:12.428Z,2.89
2022-12-25T00:37:12.436Z,2.84
2022-12-25T00:38:12.479Z,2.81
2022-12-25T00:39:12.516Z,2.77
2022-12-25T00:40:12.538Z,2.75
2022-12-25T00:41:12.575Z,2.76
2022-12-25T00:42:12.739Z,2.77
2022-12-25T00:43:12.651Z,2.76
2022-12-25T00:44:12.696Z,2.74
2022-12-25T00:45:14.248Z,2.73
2022-12-25T00:46:12.986Z,2.68
2022-12-25T00:47:12.894Z,2.69
2022-12-25T00:48:12.872Z,2.7
2022-12-25T00:49:12.880Z,2.69
2022-12-25T00:50:12.902Z,2.7
2022-12-25T00:51:12.934Z,2.72
2022-12-25T00:52:12.968Z,2.73
2022-12-25T00:53:13.015Z,2.67
2022-12-25T00:54:13.038Z,2.68
2022-12-25T00:55:13.070Z,2.65
2022-12-25T00:56:13.105Z,2.65
2022-12-25T00:57:13.129Z,2.61
2022-12-25T00:58:13.167Z,2.61
2022-12-25T00:59:13.198Z,2.62
2022-12-25T01:00:13.239Z,2.6
2022-12-25T01:01:13.408Z,2.55
2022-12-25T01:02:13.403Z,2.55
2022-12-25T01:03:13.436Z,2.55
2022-12-25T01:04:13.393Z,2.5
2022-12-25T01:05:13.433Z,2.45
2022-12-25T01:06:13.457Z,2.43
2022-12-25T01:07:13.510Z,2.47
2022-12-25T01:08:13.544Z,2.48
2022-12-25T01:09:13.578Z,2.47
2022-12-25T01:10:13.607Z,2.46
2022-12-25T01:11:13.647Z,2.46
2022-12-25T01:12:13.685Z,2.49
2022-12-25T01:13:13.736Z,2.49
2022-12-25T01:14:13.765Z,2.47
2022-12-25T01:15:13.820Z,2.47
2022-12-25T01:16:13.879Z,2.45
2022-12-25T01:17:13.869Z,2.46
2022-12-25T01:18:13.904Z,2.47
2022-12-25T01:19:13.944Z,2.47
2022-12-25T01:20:13.974Z,2.44
2022-12-25T01:21:14.019Z,2.44
2022-12-25T01:22:14.067Z,2.4
2022-12-25T01:23:14.090Z,2.39
2022-12-25T01:24:14.118Z,2.4
2022-12-25T01:25:14.148Z,2.34
2022-12-25T01:26:14.187Z,2.33
2022-12-25T01:27:14.226Z,2.31
2022-12-25T01:28:14.259Z,2.27
2022-12-25T01:29:14.305Z,2.26
2022-12-25T01:30:14.340Z,2.25
2022-12-25T01:31:14.428Z,2.22
2022-12-25T01:32:14.537Z,2.22
2022-12-25T01:33:14.443Z,2.22
2022-12-25T01:34:14.487Z,2.2
2022-12-25T01:35:14.533Z,2.14
2022-12-25T01:36:14.562Z,2.1
2022-12-25T01:37:14.590Z,2.07
2022-12-25T01:38:14.619Z,2.09
2022-12-25T01:39:14.656Z,2.13
2022-12-25T01:40:14.712Z,2.13
2022-12-25T01:41:14.757Z,2.09
2022-12-25T01:42:14.762Z,2.09
2022-12-25T01:43:18.621Z,2.08
2022-12-25T01:44:14.837Z,2.13
2022-12-25T01:45:14.868Z,2.16
2022-12-25T01:46:15.011Z,2.17
2022-12-25T01:47:14.937Z,2.15
2022-12-25T01:48:14.983Z,2.2
2022-12-25T01:49:15.020Z,2.21
2022-12-25T01:50:15.050Z,2.15
2022-12-25T01:51:15.081Z,2.14
2022-12-25T01:52:18.833Z,2.16
2022-12-25T01:53:15.170Z,2.12
2022-12-25T01:54:15.191Z,2.08
2022-12-25T01:55:15.222Z,2.05
2022-12-25T01:56:15.252Z,2.04
2022-12-25T01:57:15.293Z,2.02
2022-12-25T01:58:15.343Z,2.02
2022-12-25T01:59:15.360Z,1.97
2022-12-25T02:00:15.396Z,1.96
2022-12-25T02:01:15.568Z,1.94
2022-12-25T02:02:15.634Z,1.92
2022-12-25T02:03:15.521Z,1.92
2022-12-25T02:04:15.537Z,1.91
2022-12-25T02:05:15.591Z,1.88
2022-12-25T02:06:15.622Z,1.83
2022-12-25T02:07:15.659Z,1.8
2022-12-25T02:08:15.694Z,1.76
2022-12-25T02:09:15.765Z,1.76
2022-12-25T02:10:15.772Z,1.76
2022-12-25T02:11:15.826Z,1.75
2022-12-25T02:12:15.844Z,1.67
2022-12-25T02:13:15.869Z,1.68
2022-12-25T02:14:15.944Z,1.69
2022-12-25T02:15:15.935Z,1.67
2022-12-25T02:16:16.042Z,1.63
2022-12-25T02:17:16.116Z,1.63
2022-12-25T02:18:16.035Z,1.58
2022-12-25T02:19:16.085Z,1.57
2022-12-25T02:20:16.107Z,1.55
2022-12-25T02:21:16.154Z,1.59
2022-12-25T02:22:16.185Z,1.6
2022-12-25T02:23:16.229Z,1.57
2022-12-25T02:24:16.274Z,1.48
2022-12-25T02:25:16.300Z,1.5
2022-12-25T02:26:16.334Z,1.5
2022-12-25T02:27:16.379Z,1.49
2022-12-25T02:28:16.436Z,1.47
2022-12-25T02:29:16.453Z,1.42
2022-12-25T02:30:16.487Z,1.42
2022-12-25T02:31:16.522Z,1.41
2022-12-25T02:32:16.607Z,1.34
2022-12-25T02:33:16.604Z,1.35
2022-12-25T02:34:16.630Z,1.34
2022-12-25T02:35:16.675Z,1.34
2022-12-25T02:36:16.720Z,1.34
2022-12-25T02:37:16.734Z,1.33
2022-12-25T02:38:16.760Z,1.33
2022-12-25T02:39:16.793Z,1.34
2022-12-25T02:40:16.849Z,1.33
2022-12-25T02:41:16.863Z,1.33
2022-12-25T02:42:16.892Z,1.26
2022-12-25T02:43:16.945Z,1.3
2022-12-25T02:44:16.974Z,1.3
2022-12-25T02:45:17.032Z,1.28
2022-12-25T02:46:17.123Z,1.27
2022-12-25T02:47:17.073Z,1.27
2022-12-25T02:48:17.112Z,1.15
2022-12-25T02:49:17.156Z,1.16
2022-12-25T02:50:17.189Z,1.16
2022-12-25T02:51:17.223Z,1.16
2022-12-25T02:52:17.252Z,1.16
2022-12-25T02:53:17.287Z,1.15
2022-12-25T02:54:17.332Z,1.14
2022-12-25T02:55:17.363Z,1.14
2022-12-25T02:56:17.396Z,1.16
2022-12-25T02:57:17.426Z,1.08
2022-12-25T02:58:17.476Z,1.08
2022-12-25T02:59:17.544Z,1.03
2022-12-25T03:00:17.543Z,1.04
2022-12-25T03:01:17.759Z,1.03
2022-12-25T03:02:17.631Z,1.03
2022-12-25T03:03:17.718Z,1.04
2022-12-25T03:04:17.672Z,1.04
2022-12-25T03:05:17.724Z,1.05
2022-12-25T03:06:17.804Z,1.03
2022-12-25T03:07:17.787Z,1.03
2022-12-25T03:08:17.832Z,1.04
2022-12-25T03:09:17.847Z,1
2022-12-25T03:10:17.901Z,1.01
2022-12-25T03:11:17.954Z,1.02
2022-12-25T03:12:17.971Z,1.02
2022-12-25T03:13:17.990Z,1.02
2022-12-25T03:14:18.046Z,1.02
2022-12-25T03:15:18.095Z,1.03
2022-12-25T03:16:18.153Z,1.02
2022-12-25T03:17:18.123Z,1.02
2022-12-25T03:18:18.147Z,1.01
2022-12-25T03:19:18.207Z,0.97
2022-12-25T03:20:18.215Z,0.95
2022-12-25T03:21:18.248Z,0.95
2022-12-25T03:22:18.285Z,0.94
2022-12-25T03:23:18.333Z,0.92
2022-12-25T03:24:18.358Z,0.9
2022-12-25T03:25:18.394Z,0.91
2022-12-25T03:26:18.455Z,0.91
2022-12-25T03:27:18.486Z,0.91
2022-12-25T03:28:18.510Z,0.91
2022-12-25T03:29:18.529Z,0.92
2022-12-25T03:30:18.570Z,0.92
2022-12-25T03:31:18.680Z,0.91
2022-12-25T03:32:18.635Z,0.9
2022-12-25T03:33:43.866Z,0.87
2022-12-25T03:34:18.707Z,0.81
2022-12-25T03:35:18.738Z,0.82
2022-12-25T03:36:18.761Z,0.82
2022-12-25T03:37:18.827Z,0.83
2022-12-25T03:38:18.838Z,0.83
2022-12-25T03:39:18.862Z,0.84
2022-12-25T03:40:18.885Z,0.84
2022-12-25T03:41:18.929Z,0.83
2022-12-25T03:42:18.981Z,0.84
2022-12-25T03:43:18.994Z,0.84
2022-12-25T03:44:19.025Z,0.82
2022-12-25T03:45:19.073Z,0.82
2022-12-25T03:46:19.220Z,0.81
2022-12-25T03:47:19.137Z,0.79
2022-12-25T03:48:19.173Z,0.8
2022-12-25T03:49:19.207Z,0.79
2022-12-25T03:50:19.230Z,0.76
2022-12-25T03:51:19.278Z,0.74
2022-12-25T03:52:19.294Z,0.75
2022-12-25T03:53:19.325Z,0.7
2022-12-25T03:54:19.395Z,0.7
2022-12-25T03:55:19.403Z,0.71
2022-12-25T03:56:19.428Z,0.71
2022-12-25T03:57:19.464Z,0.7
2022-12-25T03:58:19.499Z,0.7
2022-12-25T03:59:23.848Z,0.7
2022-12-25T04:00:19.596Z,0.66
2022-12-25T04:01:19.735Z,0.7
2022-12-25T04:02:19.795Z,0.68
2022-12-25T04:03:19.691Z,0.66
2022-12-25T04:04:19.687Z,0.66
2022-12-25T04:05:19.717Z,0.66
2022-12-25T04:06:19.787Z,0.65
2022-12-25T04:07:19.827Z,0.66
2022-12-25T04:08:19.821Z,0.67
2022-12-25T04:09:19.865Z,0.68
2022-12-25T04:10:19.901Z,0.67
2022-12-25T04:11:19.929Z,0.67
2022-12-25T04:12:20.008Z,0.66
2022-12-25T04:13:20.035Z,0.67
2022-12-25T04:14:20.043Z,0.64
2022-12-25T04:15:20.041Z,0.61
2022-12-25T04:16:20.143Z,0.57
2022-12-25T04:17:20.117Z,0.6
2022-12-25T04:18:20.164Z,0.61
2022-12-25T04:19:20.182Z,0.62
2022-12-25T04:20:20.220Z,0.57
2022-12-25T04:21:20.255Z,0.55
2022-12-25T04:22:20.285Z,0.55
2022-12-25T04:23:20.316Z,0.54
2022-12-25T04:24:20.353Z,0.55
2022-12-25T04:25:20.391Z,0.54
2022-12-25T04:26:20.427Z,0.55
2022-12-25T04:27:20.464Z,0.55
2022-12-25T04:28:20.489Z,0.53
2022-12-25T04:29:20.522Z,0.54
2022-12-25T04:30:20.561Z,0.55
2022-12-25T04:31:20.654Z,0.55
2022-12-25T04:32:20.648Z,0.54
2022-12-25T04:33:20.676Z,0.55
2022-12-25T04:34:20.712Z,0.55
2022-12-25T04:35:20.756Z,0.5
2022-12-25T04:36:20.804Z,0.5
2022-12-25T04:37:20.823Z,0.5
2022-12-25T04:38:20.932Z,0.51
2022-12-25T04:39:20.900Z,0.51
2022-12-25T04:40:20.930Z,0.48
2022-12-25T04:41:21.010Z,0.49
2022-12-25T04:42:21.012Z,0.41
2022-12-25T04:43:21.048Z,0.37
2022-12-25T04:44:21.077Z,0.33
2022-12-25T04:45:21.111Z,0.31
2022-12-25T04:46:21.180Z,0.31
2022-12-25T04:47:21.235Z,0.29
2022-12-25T04:48:21.221Z,0.3
2022-12-25T04:49:21.251Z,0.31
2022-12-25T04:50:21.297Z,0.31
2022-12-25T04:51:21.335Z,0.31
2022-12-25T04:52:21.382Z,0.33
2022-12-25T04:53:21.402Z,0.29
2022-12-25T04:54:21.441Z,0.29
2022-12-25T04:55:21.477Z,0.27
2022-12-25T04:56:21.536Z,0.28
2022-12-25T04:57:21.557Z,0.28
2022-12-25T04:58:21.590Z,0.29
2022-12-25T04:59:21.624Z,0.31
2022-12-25T05:00:21.669Z,0.3
2022-12-25T05:01:21.790Z,0.29
2022-12-25T05:02:21.886Z,0.28
2022-12-25T05:03:21.830Z,0.3
2022-12-25T05:04:21.806Z,0.28
2022-12-25T05:05:21.842Z,0.3
2022-12-25T05:06:21.873Z,0.29
2022-12-25T05:07:21.918Z,0.28
2022-12-25T05:08:21.950Z,0.24
2022-12-25T05:09:21.979Z,0.24
2022-12-25T05:10:22.022Z,0.21
2022-12-25T05:11:22.059Z,0.12
2022-12-25T05:12:22.086Z,0.1
2022-12-25T05:13:22.122Z,0.12
2022-12-25T05:14:22.157Z,0.11
2022-12-25T05:15:22.191Z,0.12
2022-12-25T05:16:22.332Z,0.11
2022-12-25T05:17:22.258Z,0.12
2022-12-25T05:18:22.305Z,0.12
2022-12-25T05:19:22.337Z,0.13
2022-12-25T05:20:22.379Z,0.13
2022-12-25T05:21:22.447Z,0.12
2022-12-25T05:22:22.456Z,0.11
2022-12-25T05:23:22.490Z,0.07
2022-12-25T05:24:22.538Z,0.04
2022-12-25T05:25:22.565Z,0.03
2022-12-25T05:26:22.615Z,0.01
2022-12-25T05:27:22.625Z,0.02
2022-12-25T05:28:22.670Z,0.03
2022-12-25T05:29:22.691Z,0.05
2022-12-25T05:30:22.735Z,0.09
2022-12-25T05:31:22.863Z,0.09
2022-12-25T05:32:22.794Z,0.1
2022-12-25T05:33:22.823Z,0.08
2022-12-25T05:34:22.873Z,0.06
2022-12-25T05:35:22.896Z,0.09
2022-12-25T05:36:22.927Z,0.07
2022-12-25T05:37:22.960Z,0.06
2022-12-25T05:38:22.987Z,0.05
2022-12-25T05:39:23.036Z,0.05
2022-12-25T05:40:23.072Z,0.05
2022-12-25T05:41:23.097Z,0.05
2022-12-25T05:42:23.136Z,0.04
2022-12-25T05:43:23.163Z,0.05
2022-12-25T05:44:23.199Z,0.05
2022-12-25T05:45:23.241Z,0.05
2022-12-25T05:46:23.323Z,0.05
2022-12-25T05:47:23.418Z,0.04
2022-12-25T05:48:23.335Z,-0.01
2022-12-25T05:49:23.432Z,-0.01
2022-12-25T05:50:23.413Z,-0.01
2022-12-25T05:51:23.422Z,-0.02
2022-12-25T05:52:23.504Z,-0.02
2022-12-25T05:53:23.510Z,-0.03
2022-12-25T05:54:23.552Z,-0.04
2022-12-25T05:55:23.586Z,-0.03
2022-12-25T05:56:23.615Z,-0.02
2022-12-25T05:57:23.657Z,-0.03
2022-12-25T05:58:24.686Z,-0.01
2022-12-25T05:59:24.711Z,-0.01
2022-12-25T06:00:24.749Z,-0.01
2022-12-25T06:01:24.828Z,-0.01
2022-12-25T06:02:24.974Z,-0.01
2022-12-25T06:03:24.955Z,-0.03
2022-12-25T06:04:24.868Z,-0.03
2022-12-25T06:05:24.934Z,-0.04
2022-12-25T06:06:24.948Z,-0.04
2022-12-25T06:07:24.984Z,-0.07
2022-12-25T06:08:25.019Z,-0.1
2022-12-25T06:09:25.053Z,-0.1
2022-12-25T06:10:25.095Z,-0.09
2022-12-25T06:11:25.141Z,-0.11
2022-12-25T06:12:25.164Z,-0.09
2022-12-25T06:13:25.197Z,-0.07
2022-12-25T06:14:25.231Z,-0.07
2022-12-25T06:15:25.262Z,-0.07
2022-12-25T06:16:25.346Z,-0.08
2022-12-25T06:17:25.315Z,-0.09
2022-12-25T06:18:25.348Z,-0.12
2022-12-25T06:19:25.371Z,-0.13
2022-12-25T06:20:25.413Z,-0.13
2022-12-25T06:21:25.468Z,-0.12
2022-12-25T06:22:25.478Z,-0.11
2022-12-25T06:23:25.561Z,-0.1
2022-12-25T06:24:25.574Z,-0.1
2022-12-25T06:25:25.594Z,-0.1
2022-12-25T06:26:25.626Z,-0.09
2022-12-25T06:27:25.657Z,-0.08
2022-12-25T06:28:25.677Z,-0.1
2022-12-25T06:29:25.709Z,-0.1
2022-12-25T06:30:25.734Z,-0.13
2022-12-25T06:31:25.874Z,-0.14
2022-12-25T06:32:25.829Z,-0.17
2022-12-25T06:33:25.835Z,-0.16
2022-12-25T06:34:25.876Z,-0.15
2022-12-25T06:35:25.904Z,-0.13
2022-12-25T06:36:25.964Z,-0.13
2022-12-25T06:37:25.971Z,-0.12
2022-12-25T06:38:26.014Z,-0.12
2022-12-25T06:39:26.038Z,-0.11
2022-12-25T06:40:26.075Z,-0.1
2022-12-25T06:41:26.141Z,-0.1
2022-12-25T06:42:26.138Z,-0.14
2022-12-25T06:43:26.188Z,-0.13
2022-12-25T06:44:26.206Z,-0.13
2022-12-25T06:45:26.331Z,-0.14
2022-12-25T06:46:26.432Z,-0.14
2022-12-25T06:47:26.319Z,-0.17
2022-12-25T06:48:26.355Z,-0.18
2022-12-25T06:49:26.380Z,-0.18
2022-12-25T06:50:26.421Z,-0.16
2022-12-25T06:51:26.502Z,-0.19
2022-12-25T06:52:26.493Z,-0.19
2022-12-25T06:53:26.518Z,-0.19
2022-12-25T06:54:26.555Z,-0.17
2022-12-25T06:55:26.589Z,-0.17
2022-12-25T06:56:26.641Z,-0.2
2022-12-25T06:57:26.692Z,-0.21
2022-12-25T06:58:26.706Z,-0.21
2022-12-25T06:59:26.726Z,-0.21
2022-12-25T07:00:26.759Z,-0.21
2022-12-25T07:01:26.901Z,-0.21
2022-12-25T07:02:26.957Z,-0.21
2022-12-25T07:03:26.924Z,-0.24
2022-12-25T07:04:26.945Z,-0.23
2022-12-25T07:05:26.936Z,-0.26
2022-12-25T07:06:26.982Z,-0.26
2022-12-25T07:07:27.013Z,-0.25
2022-12-25T07:08:27.050Z,-0.25
2022-12-25T07:09:27.119Z,-0.24
2022-12-25T07:10:27.120Z,-0.22
2022-12-25T07:11:27.160Z,-0.24
2022-12-25T07:12:27.207Z,-0.24
2022-12-25T07:13:27.221Z,-0.21
2022-12-25T07:14:27.270Z,-0.19
2022-12-25T07:15:27.283Z,-0.18
2022-12-25T07:16:27.359Z,-0.15
2022-12-25T07:17:27.349Z,-0.15
2022-12-25T07:18:27.389Z,-0.15
2022-12-25T07:19:27.421Z,-0.13
2022-12-25T07:20:27.449Z,-0.12
2022-12-25T07:21:27.484Z,-0.12
2022-12-25T07:22:27.525Z,-0.12
2022-12-25T07:23:27.564Z,-0.13
2022-12-25T07:24:27.593Z,-0.1
2022-12-25T07:25:32.091Z,-0.1
2022-12-25T07:26:27.664Z,-0.09
2022-12-25T07:27:27.706Z,-0.08
2022-12-25T07:28:27.734Z,-0.08
2022-12-25T07:29:27.773Z,-0.08
2022-12-25T07:30:27.836Z,-0.05
2022-12-25T07:31:27.849Z,-0.05
2022-12-25T07:32:27.877Z,-0.05
2022-12-25T07:33:27.916Z,-0.02
2022-12-25T07:34:27.949Z,-0.01
2022-12-25T07:35:27.987Z,-0.01
2022-12-25T07:36:28.017Z,-0.01
2022-12-25T07:37:28.110Z,-0.01
2022-12-25T07:38:28.112Z,0.02
2022-12-25T07:39:28.137Z,0.09
2022-12-25T07:40:28.257Z,0.09
2022-12-25T07:41:28.406Z,0.07
2022-12-25T07:42:28.226Z,0.11
2022-12-25T07:43:28.265Z,0.13
2022-12-25T07:44:28.314Z,0.12
2022-12-25T07:45:32.981Z,0.13
2022-12-25T07:46:32.932Z,0.15
2022-12-25T07:47:32.956Z,0.16
2022-12-25T07:48:32.967Z,0.22
2022-12-25T07:49:33.008Z,0.18
2022-12-25T07:50:33.048Z,0.19
2022-12-25T07:51:33.074Z,0.18
2022-12-25T07:52:38.034Z,0.19
2022-12-25T07:53:33.139Z,0.19
2022-12-25T07:54:33.185Z,0.22
2022-12-25T07:55:33.242Z,0.23
2022-12-25T07:56:33.264Z,0.25
2022-12-25T07:57:33.284Z,0.3
2022-12-25T07:58:33.315Z,0.33
2022-12-25T07:59:33.385Z,0.37
2022-12-25T08:00:33.475Z,0.37
2022-12-25T08:01:33.763Z,0.39
2022-12-25T08:02:33.735Z,0.45
2022-12-25T08:03:33.898Z,0.47
2022-12-25T08:04:33.524Z,0.52
2022-12-25T08:05:33.582Z,0.54
2022-12-25T08:06:33.618Z,0.54
2022-12-25T08:07:33.629Z,0.6
2022-12-25T08:08:33.672Z,0.57
2022-12-25T08:09:33.694Z,0.61
2022-12-25T08:10:33.764Z,0.63
2022-12-25T08:11:33.765Z,0.63
2022-12-25T08:12:33.796Z,0.64
2022-12-25T08:13:33.849Z,0.65
2022-12-25T08:14:33.862Z,0.68
2022-12-25T08:15:33.902Z,0.69
2022-12-25T08:16:33.976Z,0.73
2022-12-25T08:17:33.941Z,0.75
2022-12-25T08:18:34.011Z,0.76
2022-12-25T08:19:34.015Z,0.76
2022-12-25T08:20:34.049Z,0.79
2022-12-25T08:21:34.085Z,0.8
2022-12-25T08:22:34.100Z,0.89
2022-12-25T08:23:34.133Z,0.91
2022-12-25T08:24:34.168Z,0.91
2022-12-25T08:25:34.202Z,0.9
2022-12-25T08:26:34.285Z,0.88
2022-12-25T08:27:34.276Z,0.91
2022-12-25T08:28:34.354Z,0.9
2022-12-25T08:29:34.348Z,0.89
2022-12-25T08:30:34.467Z,0.89
2022-12-25T08:31:34.752Z,0.89
2022-12-25T08:32:34.445Z,1
2022-12-25T08:33:34.489Z,1.03
2022-12-25T08:34:34.517Z,1.04
2022-12-25T08:35:34.558Z,1.06
2022-12-25T08:36:34.582Z,1.07
2022-12-25T08:37:34.662Z,1.1
2022-12-25T08:38:34.660Z,1.13
2022-12-25T08:39:34.692Z,1.12
2022-12-25T08:40:34.744Z,1.11
2022-12-25T08:41:34.772Z,1.12
2022-12-25T08:42:34.822Z,1.13
2022-12-25T08:43:34.836Z,1.19
2022-12-25T08:44:34.886Z,1.18
2022-12-25T08:45:35.563Z,1.25
2022-12-25T08:46:35.433Z,1.25
2022-12-25T08:47:35.365Z,1.27
2022-12-25T08:48:35.400Z,1.33
2022-12-25T08:49:35.457Z,1.35
2022-12-25T08:50:35.467Z,1.37
2022-12-25T08:51:35.509Z,1.46
2022-12-25T08:52:35.588Z,1.49
2022-12-25T08:53:35.603Z,1.48
2022-12-25T08:54:35.609Z,1.51
2022-12-25T08:55:35.666Z,1.55
2022-12-25T08:56:35.668Z,1.61
2022-12-25T08:57:35.706Z,1.62
2022-12-25T08:58:35.733Z,1.65
2022-12-25T08:59:35.781Z,1.71
2022-12-25T09:00:35.856Z,1.75
2022-12-25T09:01:36.058Z,1.78
2022-12-25T09:02:36.070Z,1.8
2022-12-25T09:03:36.091Z,1.8
2022-12-25T09:04:35.970Z,1.81
2022-12-25T09:05:35.985Z,1.88
2022-12-25T09:06:36.010Z,1.91
2022-12-25T09:07:36.078Z,1.93
2022-12-25T09:08:36.078Z,1.93
2022-12-25T09:09:36.112Z,1.94
2022-12-25T09:10:36.155Z,1.98
2022-12-25T09:11:36.189Z,1.97
2022-12-25T09:12:36.219Z,1.96
2022-12-25T09:13:36.243Z,1.99
2022-12-25T09:14:36.285Z,2.05
2022-12-25T09:15:36.346Z,2
2022-12-25T09:16:36.357Z,1.98
2022-12-25T09:17:36.385Z,1.99
2022-12-25T09:18:36.424Z,1.99
2022-12-25T09:19:36.472Z,1.98
2022-12-25T09:20:36.497Z,1.98
2022-12-25T09:21:36.536Z,2.03
2022-12-25T09:22:36.553Z,2.05
2022-12-25T09:23:36.594Z,2.05
2022-12-25T09:24:36.626Z,2.07
2022-12-25T09:25:36.651Z,2.07
2022-12-25T09:26:36.677Z,2.08
2022-12-25T09:27:36.703Z,2.08
2022-12-25T09:28:36.746Z,2.16
2022-12-25T09:29:36.769Z,2.18
2022-12-25T09:30:36.832Z,2.22
2022-12-25T09:31:36.822Z,2.23
2022-12-25T09:32:36.870Z,2.25
2022-12-25T09:33:36.898Z,2.31
2022-12-25T09:34:36.923Z,2.33
2022-12-25T09:35:36.959Z,2.33
2022-12-25T09:36:36.998Z,2.35
2022-12-25T09:37:37.040Z,2.39
2022-12-25T09:38:37.080Z,2.4
2022-12-25T09:39:42.173Z,2.39
2022-12-25T09:40:37.144Z,2.42
2022-12-25T09:41:37.174Z,2.47
2022-12-25T09:42:37.263Z,2.47
2022-12-25T09:43:37.248Z,2.49
2022-12-25T09:44:37.289Z,2.49
2022-12-25T09:45:37.321Z,2.55
2022-12-25T09:46:37.650Z,2.57
2022-12-25T09:47:37.392Z,2.59
2022-12-25T09:48:37.439Z,2.63
2022-12-25T09:49:37.459Z,2.66
2022-12-25T09:50:37.495Z,2.67
2022-12-25T09:51:37.527Z,2.69
2022-12-25T09:52:37.563Z,2.73
2022-12-25T09:53:37.600Z,2.73
2022-12-25T09:54:37.635Z,2.75
2022-12-25T09:55:37.656Z,2.79
2022-12-25T09:56:37.688Z,2.85
2022-12-25T09:57:37.774Z,2.85
2022-12-25T09:58:37.746Z,2.86
2022-12-25T09:59:37.797Z,2.88
2022-12-25T10:00:37.824Z,2.96
2022-12-25T10:01:37.939Z,2.98
2022-12-25T10:02:38.067Z,2.99
2022-12-25T10:03:37.990Z,3.02
2022-12-25T10:04:40.931Z,3.1
2022-12-25T10:05:38.002Z,3.1
2022-12-25T10:06:38.035Z,3.13
2022-12-25T10:07:38.062Z,3.13
2022-12-25T10:08:38.101Z,3.21
2022-12-25T10:09:38.138Z,3.25
2022-12-25T10:10:38.184Z,3.25
2022-12-25T10:11:38.210Z,3.27
2022-12-25T10:12:38.238Z,3.32
2022-12-25T10:13:38.270Z,3.34
2022-12-25T10:14:38.308Z,3.39
2022-12-25T10:15:41.886Z,3.42
2022-12-25T10:16:38.437Z,3.42
2022-12-25T10:17:38.407Z,3.44
2022-12-25T10:18:38.473Z,3.46
2022-12-25T10:19:38.497Z,3.45
2022-12-25T10:20:38.529Z,3.49
2022-12-25T10:21:38.599Z,3.47
2022-12-25T10:22:38.613Z,3.5
2022-12-25T10:23:38.659Z,3.56
2022-12-25T10:24:38.686Z,3.55
2022-12-25T10:25:38.710Z,3.55
2022-12-25T10:26:38.752Z,3.62
2022-12-25T10:27:38.800Z,3.63
2022-12-25T10:28:38.818Z,3.66
2022-12-25T10:29:38.841Z,3.65
2022-12-25T10:30:38.883Z,3.65
2022-12-25T10:31:38.961Z,3.69
2022-12-25T10:32:38.970Z,3.74
2022-12-25T10:33:38.993Z,3.74
2022-12-25T10:34:39.020Z,3.74
2022-12-25T10:35:39.066Z,3.75
2022-12-25T10:36:39.092Z,3.75
2022-12-25T10:37:39.131Z,3.75
2022-12-25T10:38:39.165Z,3.76
2022-12-25T10:39:45.840Z,3.85
2022-12-25T10:40:39.220Z,3.85
2022-12-25T10:41:39.262Z,3.85
2022-12-25T10:42:39.294Z,3.9
2022-12-25T10:43:39.316Z,3.92
2022-12-25T10:44:39.362Z,3.94
2022-12-25T10:45:39.387Z,3.95
2022-12-25T10:46:39.500Z,3.95
2022-12-25T10:47:41.440Z,3.97
2022-12-25T10:48:39.487Z,3.98
2022-12-25T10:49:39.519Z,3.98
2022-12-25T10:50:39.554Z,3.98
2022-12-25T10:51:39.580Z,3.97
2022-12-25T10:52:39.623Z,3.97
2022-12-25T10:53:39.656Z,4.02
2022-12-25T10:54:39.700Z,4.05
2022-12-25T10:55:39.709Z,4.04
2022-12-25T10:56:39.735Z,4.05
2022-12-25T10:57:39.765Z,4.04
2022-12-25T10:58:39.808Z,4.03
2022-12-25T10:59:39.844Z,4.03
2022-12-25T11:00:39.871Z,4.05
2022-12-25T11:01:39.979Z,4.09
2022-12-25T11:02:40.303Z,4.12
2022-12-25T11:03:40.032Z,4.12
2022-12-25T11:04:40.010Z,4.13
2022-12-25T11:05:40.043Z,4.16
2022-12-25T11:06:40.079Z,4.15
2022-12-25T11:07:40.123Z,4.17
2022-12-25T11:08:40.144Z,4.17
2022-12-25T11:09:40.177Z,4.17
2022-12-25T11:10:40.206Z,4.18
2022-12-25T11:11:40.241Z,4.2
2022-12-25T11:12:40.281Z,4.21
2022-12-25T11:13:40.339Z,4.26
2022-12-25T11:14:40.359Z,4.26
2022-12-25T11:15:40.480Z,4.29
2022-12-25T11:16:40.594Z,4.29
2022-12-25T11:17:40.495Z,4.29
2022-12-25T11:18:40.496Z,4.3
2022-12-25T11:19:40.522Z,4.31
2022-12-25T11:20:45.397Z,4.36
2022-12-25T11:21:40.597Z,4.37
2022-12-25T11:22:40.651Z,4.43
2022-12-25T11:23:40.689Z,4.45
2022-12-25T11:24:40.699Z,4.45
2022-12-25T11:25:40.722Z,4.48
2022-12-25T11:26:40.760Z,4.47
2022-12-25T11:27:40.790Z,4.47
2022-12-25T11:28:40.834Z,4.5
2022-12-25T11:29:40.889Z,4.49
2022-12-25T11:30:40.895Z,4.49
2022-12-25T11:31:41.021Z,4.49
2022-12-25T11:32:40.962Z,4.48
2022-12-25T11:33:40.992Z,4.52
2022-12-25T11:34:41.048Z,4.52
2022-12-25T11:35:41.068Z,4.54
2022-12-25T11:36:41.115Z,4.54
2022-12-25T11:37:41.130Z,4.54
2022-12-25T11:38:41.175Z,4.58
2022-12-25T11:39:41.195Z,4.57
2022-12-25T11:40:41.233Z,4.58
2022-12-25T11:41:41.268Z,4.57
2022-12-25T11:42:41.301Z,4.58
2022-12-25T11:43:41.347Z,4.63
2022-12-25T11:44:41.378Z,4.65
2022-12-25T11:45:41.416Z,4.65
2022-12-25T11:46:41.497Z,4.62
2022-12-25T11:47:41.473Z,4.65
2022-12-25T11:48:41.522Z,4.63
2022-12-25T11:49:45.800Z,4.63
2022-12-25T11:50:41.576Z,4.63
2022-12-25T11:51:41.643Z,4.64
2022-12-25T11:52:41.639Z,4.64
2022-12-25T11:53:41.677Z,4.64
2022-12-25T11:54:41.710Z,4.64
2022-12-25T11:55:41.743Z,4.65
2022-12-25T11:56:41.772Z,4.65
2022-12-25T11:57:41.812Z,4.66
2022-12-25T11:58:41.856Z,4.71
2022-12-25T11:59:41.885Z,4.73
2022-12-25T12:00:41.920Z,4.74
2022-12-25T12:01:42.082Z,4.73
2022-12-25T12:02:42.274Z,4.75
2022-12-25T12:03:42.058Z,4.75
2022-12-25T12:04:42.973Z,4.75
2022-12-25T12:05:42.095Z,4.75
2022-12-25T12:06:42.129Z,4.75
2022-12-25T12:07:42.150Z,4.76
2022-12-25T12:08:42.189Z,4.75
2022-12-25T12:09:42.255Z,4.76
2022-12-25T12:10:42.264Z,4.76
2022-12-25T12:11:42.286Z,4.76
2022-12-25T12:12:48.471Z,4.76
2022-12-25T12:13:42.358Z,4.76
2022-12-25T12:14:42.414Z,4.82
2022-12-25T12:15:42.461Z,4.82
2022-12-25T12:16:42.545Z,4.79
2022-12-25T12:17:42.508Z,4.79
2022-12-25T12:18:48.142Z,4.81
2022-12-25T12:19:42.575Z,4.83
2022-12-25T12:20:42.602Z,4.84
2022-12-25T12:21:42.638Z,4.84
2022-12-25T12:22:42.716Z,4.82
2022-12-25T12:23:42.699Z,4.82
2022-12-25T12:24:42.750Z,4.85
2022-12-25T12:25:42.762Z,4.84
2022-12-25T12:26:42.802Z,4.84
2022-12-25T12:27:42.842Z,4.84
2022-12-25T12:28:42.858Z,4.85
2022-12-25T12:29:42.900Z,4.85
2022-12-25T12:30:42.928Z,4.85
2022-12-25T12:31:43.030Z,4.85
2022-12-25T12:32:43.077Z,4.85
2022-12-25T12:33:43.040Z,4.91
2022-12-25T12:34:43.101Z,4.9
2022-12-25T12:35:43.111Z,4.9
2022-12-25T12:36:43.185Z,4.91
2022-12-25T12:37:43.182Z,4.93
2022-12-25T12:38:43.207Z,4.93
2022-12-25T12:39:43.244Z,4.93
2022-12-25T12:40:43.265Z,4.93
2022-12-25T12:41:43.347Z,4.93
2022-12-25T12:42:43.345Z,4.93
2022-12-25T12:43:43.380Z,4.93
2022-12-25T12:44:43.408Z,4.93
2022-12-25T12:45:43.548Z,4.93
2022-12-25T12:46:43.494Z,4.93
2022-12-25T12:47:43.532Z,4.93
2022-12-25T12:48:43.552Z,4.95
2022-12-25T12:49:43.584Z,4.95
2022-12-25T12:50:43.620Z,4.93
2022-12-25T12:51:43.658Z,4.93
2022-12-25T12:52:43.785Z,4.96
2022-12-25T12:53:43.727Z,4.95
2022-12-25T12:54:43.762Z,4.95
2022-12-25T12:55:43.794Z,4.95
2022-12-25T12:56:43.826Z,4.95
2022-12-25T12:57:43.899Z,4.95
2022-12-25T12:58:43.915Z,4.95
2022-12-25T12:59:43.937Z,4.95
2022-12-25T13:00:44.021Z,4.95
2022-12-25T13:01:44.217Z,4.95
2022-12-25T13:02:44.207Z,4.95
2022-12-25T13:03:44.068Z,4.95
2022-12-25T13:04:44.118Z,4.95
2022-12-25T13:05:44.141Z,4.95
2022-12-25T13:06:44.202Z,4.97
2022-12-25T13:07:44.346Z,4.97
2022-12-25T13:08:44.227Z,4.97
2022-12-25T13:09:44.269Z,4.97
2022-12-25T13:10:44.316Z,4.97
2022-12-25T13:11:44.353Z,5.02
2022-12-25T13:12:45.113Z,5.02
2022-12-25T13:13:45.144Z,5.02
2022-12-25T13:14:45.190Z,5.04
2022-12-25T13:15:45.225Z,5.04
2022-12-25T13:16:45.381Z,5.04
2022-12-25T13:17:45.328Z,5.04